Time;durP1;ratioP1;P1;durP2;ratioP2;P2;SDS_P1;SDS_P2;PMS_P1;PMS_P2;Temp;Humidity;BMP_temperature;BMP_pressure;BME280_temperature;BME280_humidity;BME280_pressure;Samples;Min_cycle;Max_cycle;Signal;HPM_P1;HPM_P2
2023/10/20 00:01:13;;;;;;;14.52;11.25;;;16.10;88.00;;;;;;5100065;28;20019;-67
2023/10/20 00:03:38;;;;;;;15.80;11.05;;;16.10;87.30;;;;;;5093748;28;20334;-67
2023/10/20 00:06:05;;;;;;;14.63;11.02;;;16.10;87.30;;;;;;5087937;28;20181;-67
2023/10/20 00:08:31;;;;;;;15.82;11.63;;;16.10;87.30;;;;;;5089554;28;20363;-67
2023/10/20 00:11:04;;;;;;;16.85;11.70;;;16.10;87.30;;;;;;5079576;28;20341;-67
2023/10/20 00:13:29;;;;;;;15.52;12.43;;;16.10;87.30;;;;;;5072061;28;20364;-68
2023/10/20 00:15:55;;;;;;;16.60;12.63;;;16.10;87.20;;;;;;5079992;28;20027;-67
2023/10/20 00:18:22;;;;;;;18.20;13.25;;;16.10;87.30;;;;;;5073483;28;20035;-68
2023/10/20 00:20:48;;;;;;;18.30;14.32;;;16.10;87.30;;;;;;5081277;28;20081;-67
2023/10/20 00:23:14;;;;;;;16.75;13.50;;;16.00;87.20;;;;;;5080137;28;20025;-67
2023/10/20 00:25:41;;;;;;;18.90;13.88;;;16.10;87.30;;;;;;5067968;28;20453;-67
2023/10/20 00:28:09;;;;;;;18.42;14.05;;;16.10;87.30;;;;;;5096118;28;20047;-67
2023/10/20 00:30:41;;;;;;;18.02;12.75;;;16.00;87.20;;;;;;5079182;28;20374;-67
2023/10/20 00:33:07;;;;;;;20.02;15.32;;;16.00;87.20;;;;;;5080032;28;20330;-67
2023/10/20 00:35:34;;;;;;;20.77;14.23;;;16.00;87.20;;;;;;5088968;28;20393;-68
2023/10/20 00:38:01;;;;;;;21.23;13.82;;;16.00;87.20;;;;;;5085903;28;20036;-67
2023/10/20 00:40:27;;;;;;;18.35;14.55;;;16.00;87.20;;;;;;5073803;28;20075;-67
2023/10/20 00:42:53;;;;;;;19.25;14.90;;;16.00;87.20;;;;;;5080214;28;20068;-67
2023/10/20 00:45:19;;;;;;;20.52;14.82;;;16.00;87.20;;;;;;5072937;28;20043;-67
2023/10/20 00:47:46;;;;;;;16.98;13.98;;;16.00;87.20;;;;;;5083258;28;20032;-67
2023/10/20 00:50:13;;;;;;;18.90;15.40;;;16.00;87.20;;;;;;5083796;28;20090;-67
2023/10/20 00:52:47;;;;;;;18.90;15.02;;;16.00;87.20;;;;;;5081243;28;20044;-67
2023/10/20 00:55:14;;;;;;;19.30;14.85;;;16.00;87.10;;;;;;5089789;28;20329;-68
2023/10/20 00:57:43;;;;;;;22.38;14.88;;;15.90;87.10;;;;;;5105809;28;20036;-67
2023/10/20 01:00:10;;;;;;;20.17;14.20;;;15.90;87.10;;;;;;5114233;28;20020;-67
2023/10/20 01:02:39;;;;;;;19.67;15.68;;;15.90;87.10;;;;;;5089532;28;20035;-67
2023/10/20 01:05:14;;;;;;;21.13;15.65;;;15.90;87.10;;;;;;5112688;28;20039;-67
2023/10/20 01:07:40;;;;;;;21.95;16.13;;;15.90;87.10;;;;;;5108760;28;20051;-67
2023/10/20 01:10:07;;;;;;;21.27;15.38;;;15.90;87.00;;;;;;5095681;28;20464;-67
2023/10/20 01:12:33;;;;;;;21.60;15.00;;;15.90;87.00;;;;;;5062286;28;20028;-67
2023/10/20 01:14:59;;;;;;;21.67;15.70;;;15.90;87.00;;;;;;5082414;28;20029;-67
2023/10/20 01:17:27;;;;;;;21.20;15.93;;;15.90;87.00;;;;;;5078488;28;20033;-67
2023/10/20 01:19:52;;;;;;;20.92;15.65;;;15.80;86.90;;;;;;5083552;28;20101;-67
2023/10/20 01:22:18;;;;;;;23.15;16.23;;;15.80;86.90;;;;;;5077410;28;20119;-67
2023/10/20 01:24:44;;;;;;;23.20;16.08;;;15.80;86.90;;;;;;5078685;28;20031;-68
2023/10/20 01:27:10;;;;;;;20.60;16.45;;;15.80;86.90;;;;;;5095497;28;20055;-67
2023/10/20 01:29:36;;;;;;;20.20;15.57;;;15.80;86.90;;;;;;5087883;28;20056;-67
2023/10/20 01:32:03;;;;;;;21.75;16.20;;;15.80;86.80;;;;;;5072490;28;20032;-67
2023/10/20 01:34:29;;;;;;;22.17;15.93;;;15.80;86.80;;;;;;5092311;28;20040;-67
2023/10/20 01:36:55;;;;;;;21.83;16.50;;;15.80;87.40;;;;;;5094037;28;20021;-67
2023/10/20 01:39:21;;;;;;;20.90;15.00;;;15.80;86.80;;;;;;5091651;28;20024;-67
2023/10/20 01:41:47;;;;;;;24.42;15.63;;;15.80;86.80;;;;;;5086384;28;20048;-67
2023/10/20 01:44:13;;;;;;;21.55;14.85;;;15.80;86.80;;;;;;5087687;28;20107;-67
2023/10/20 01:46:42;;;;;;;21.67;16.20;;;15.80;86.70;;;;;;5081083;28;20551;-67
2023/10/20 01:49:08;;;;;;;20.25;15.13;;;15.70;86.60;;;;;;5092559;28;20492;-67
2023/10/20 01:51:35;;;;;;;22.92;16.27;;;15.70;86.60;;;;;;5088803;28;20167;-68
2023/10/20 01:54:02;;;;;;;23.45;16.75;;;15.70;86.60;;;;;;5093369;28;20084;-68
2023/10/20 01:56:28;;;;;;;22.33;15.75;;;15.70;86.60;;;;;;5075779;28;20044;-68
2023/10/20 01:58:55;;;;;;;20.73;15.18;;;15.70;86.60;;;;;;5090029;28;20419;-68
2023/10/20 02:01:22;;;;;;;23.30;16.08;;;15.70;86.60;;;;;;5078776;28;20361;-68
2023/10/20 02:03:49;;;;;;;23.23;16.42;;;15.70;86.60;;;;;;5084575;28;20024;-68
2023/10/20 02:06:18;;;;;;;21.63;16.88;;;15.70;86.50;;;;;;5093992;28;20035;-68
2023/10/20 02:08:44;;;;;;;22.42;16.98;;;15.60;87.10;;;;;;5087517;28;20032;-68
2023/10/20 02:11:10;;;;;;;24.77;16.63;;;15.70;86.50;;;;;;5080999;28;20020;-68
2023/10/20 02:13:38;;;;;;;21.63;16.38;;;15.60;86.50;;;;;;5080318;28;20434;-68
2023/10/20 02:16:07;;;;;;;21.95;15.98;;;15.60;86.50;;;;;;5089060;28;20470;-68
2023/10/20 02:18:33;;;;;;;22.08;16.38;;;15.60;86.40;;;;;;5073866;28;20375;-68
2023/10/20 02:21:03;;;;;;;22.88;16.58;;;15.60;86.40;;;;;;5087048;28;20024;-68
2023/10/20 02:23:34;;;;;;;22.98;15.88;;;15.60;86.20;;;;;;5070231;28;20476;-68
2023/10/20 02:26:07;;;;;;;24.33;16.35;;;15.60;86.20;;;;;;5088044;28;20445;-68
2023/10/20 02:28:34;;;;;;;26.52;17.63;;;15.60;86.20;;;;;;5080666;28;20101;-68
2023/10/20 02:31:17;;;;;;;23.75;17.20;;;15.60;86.20;;;;;;5088031;28;20035;-68
2023/10/20 02:33:43;;;;;;;24.13;17.27;;;15.60;86.20;;;;;;5078214;28;20036;-68
2023/10/20 02:36:09;;;;;;;23.98;16.50;;;15.50;86.10;;;;;;5076277;28;20032;-68
2023/10/20 02:38:35;;;;;;;25.13;17.95;;;15.50;86.10;;;;;;5083824;28;20035;-68
2023/10/20 02:41:03;;;;;;;24.10;16.52;;;15.50;86.10;;;;;;5089482;28;20037;-68
2023/10/20 02:43:29;;;;;;;25.30;17.30;;;15.50;86.00;;;;;;5085230;28;20036;-68
2023/10/20 02:45:57;;;;;;;24.98;17.65;;;15.50;86.00;;;;;;5092017;28;20024;-68
2023/10/20 02:48:24;;;;;;;29.17;17.98;;;15.50;86.00;;;;;;5104156;28;20032;-68
2023/10/20 02:50:50;;;;;;;28.27;18.30;;;15.40;86.00;;;;;;5099180;28;20020;-68
2023/10/20 02:53:17;;;;;;;29.65;18.85;;;15.40;85.90;;;;;;5114123;28;20100;-68
2023/10/20 02:55:44;;;;;;;28.75;18.45;;;15.40;85.90;;;;;;5107665;28;20039;-67
2023/10/20 02:58:13;;;;;;;27.45;18.77;;;15.40;85.80;;;;;;5103099;28;20020;-68
2023/10/20 03:00:43;;;;;;;29.88;18.92;;;15.40;85.70;;;;;;5096872;28;20412;-68
2023/10/20 03:03:13;;;;;;;30.23;18.75;;;15.40;85.70;;;;;;5114913;28;20456;-68
2023/10/20 03:05:43;;;;;;;26.20;17.98;;;15.30;85.60;;;;;;5105872;28;20103;-68
2023/10/20 03:08:12;;;;;;;29.30;18.70;;;15.30;85.50;;;;;;5106794;28;20047;-67
2023/10/20 03:10:38;;;;;;;28.15;18.95;;;15.30;85.50;;;;;;5093274;28;20039;-67
2023/10/20 03:13:04;;;;;;;30.58;17.73;;;15.20;85.50;;;;;;5089918;28;20067;-68
2023/10/20 03:15:32;;;;;;;28.75;18.23;;;15.20;85.60;;;;;;5085619;28;20027;-68
2023/10/20 03:18:01;;;;;;;32.58;21.05;;;15.20;85.50;;;;;;5093504;28;20024;-68
2023/10/20 03:20:30;;;;;;;29.30;18.58;;;15.10;85.30;;;;;;5084031;28;20039;-68
2023/10/20 03:22:56;;;;;;;27.90;17.85;;;15.10;85.40;;;;;;5073950;28;20449;-68
2023/10/20 03:25:22;;;;;;;26.98;17.48;;;15.10;85.40;;;;;;5083338;28;20036;-68
2023/10/20 03:27:48;;;;;;;28.05;17.63;;;15.10;85.30;;;;;;5079381;28;20077;-68
2023/10/20 03:30:17;;;;;;;24.73;16.67;;;15.10;85.30;;;;;;5090954;28;20020;-68
2023/10/20 03:32:46;;;;;;;27.67;18.50;;;15.00;85.10;;;;;;5088206;28;20368;-68
2023/10/20 03:35:12;;;;;;;30.35;17.65;;;15.00;85.10;;;;;;5079821;28;20441;-68
2023/10/20 03:37:38;;;;;;;28.40;17.85;;;15.00;85.10;;;;;;5076258;28;20078;-68
2023/10/20 03:40:13;;;;;;;30.08;18.02;;;15.00;85.10;;;;;;5086907;28;20028;-68
2023/10/20 03:42:41;;;;;;;28.00;18.13;;;15.00;85.10;;;;;;5076047;28;20035;-68
2023/10/20 03:45:09;;;;;;;29.30;17.65;;;14.90;85.00;;;;;;5064804;28;20368;-68
2023/10/20 03:47:38;;;;;;;27.73;16.95;;;14.90;85.00;;;;;;5077038;28;20100;-68
2023/10/20 03:50:14;;;;;;;31.75;17.27;;;14.90;84.90;;;;;;5080354;28;20147;-68
2023/10/20 03:52:41;;;;;;;28.08;18.05;;;14.90;84.90;;;;;;5077218;28;20103;-68
2023/10/20 03:55:08;;;;;;;26.85;16.50;;;14.90;84.90;;;;;;5075623;28;20452;-68
2023/10/20 03:57:34;;;;;;;33.03;18.50;;;14.90;84.90;;;;;;5079822;28;20485;-68
2023/10/20 04:00:14;;;;;;;30.27;18.23;;;14.90;84.90;;;;;;5069026;28;20020;-68
2023/10/20 04:02:41;;;;;;;27.80;16.83;;;14.80;84.70;;;;;;5079670;28;20036;-68
2023/10/20 04:05:07;;;;;;;31.40;18.95;;;14.80;84.70;;;;;;5080609;28;20036;-68
2023/10/20 04:07:33;;;;;;;28.73;17.42;;;14.80;84.80;;;;;;5092756;28;20024;-68
2023/10/20 04:09:59;;;;;;;30.48;18.15;;;14.80;84.80;;;;;;5084474;28;20432;-68
2023/10/20 04:12:27;;;;;;;29.55;18.08;;;14.80;84.70;;;;;;5094670;28;20115;-68
2023/10/20 04:14:55;;;;;;;28.05;17.45;;;14.80;84.60;;;;;;5086424;28;20020;-68
2023/10/20 04:17:21;;;;;;;29.63;18.45;;;14.70;84.60;;;;;;5084231;28;20025;-68
2023/10/20 04:19:49;;;;;;;28.70;16.70;;;14.70;84.60;;;;;;5101124;28;20024;-68
2023/10/20 04:22:18;;;;;;;27.63;17.02;;;14.70;84.70;;;;;;5086791;28;20039;-68
2023/10/20 04:24:44;;;;;;;27.25;17.05;;;14.70;84.70;;;;;;5104988;28;20036;-68
2023/10/20 04:27:21;;;;;;;27.63;16.88;;;14.70;84.70;;;;;;5106571;28;20076;-68
2023/10/20 04:44:57;;;;;;;29.23;17.30;;;14.60;84.60;;;;;;5087688;28;20028;-68
2023/10/20 04:49:16;;;;;;;26.42;16.65;;;14.60;84.50;;;;;;5078980;28;20058;-68
2023/10/20 04:54:45;;;;;;;27.38;15.93;;;14.50;84.40;;;;;;5077253;28;20100;-68
2023/10/20 05:07:58;;;;;;;24.00;14.77;;;14.40;84.40;;;;;;5079453;28;20380;-68
2023/10/20 05:10:25;;;;;;;21.67;14.27;;;14.50;84.50;;;;;;5082434;28;20464;-68
2023/10/20 05:12:51;;;;;;;20.42;12.70;;;14.40;84.40;;;;;;5075077;28;20079;-68
2023/10/20 05:15:17;;;;;;;22.48;13.85;;;14.40;84.30;;;;;;5058747;28;20436;-68
2023/10/20 05:17:44;;;;;;;17.88;12.25;;;14.40;84.30;;;;;;5072636;28;20032;-68
2023/10/20 05:20:12;;;;;;;18.33;12.70;;;14.50;84.30;;;;;;5079113;28;20023;-68
2023/10/20 05:22:42;;;;;;;17.10;11.35;;;14.40;84.20;;;;;;5085135;28;20028;-68
2023/10/20 05:25:11;;;;;;;19.02;11.77;;;14.40;84.10;;;;;;5074836;28;20046;-68
2023/10/20 05:27:37;;;;;;;17.83;11.32;;;14.40;84.10;;;;;;5088477;28;20032;-68
2023/10/20 05:30:04;;;;;;;18.83;11.52;;;14.40;84.00;;;;;;5074559;28;20033;-68
2023/10/20 05:32:31;;;;;;;19.92;11.98;;;14.40;84.00;;;;;;5061015;28;20362;-68
2023/10/20 05:35:00;;;;;;;18.45;11.35;;;14.40;84.10;;;;;;5075114;28;20029;-68
2023/10/20 05:37:27;;;;;;;17.35;10.45;;;14.40;84.10;;;;;;5076623;28;20056;-68
2023/10/20 05:39:53;;;;;;;16.83;10.48;;;14.40;84.10;;;;;;5083896;28;20035;-68
2023/10/20 05:42:19;;;;;;;15.77;10.80;;;14.40;84.00;;;;;;5079605;28;20028;-68
2023/10/20 05:44:59;;;;;;;15.93;9.77;;;14.40;83.90;;;;;;5079416;28;20031;-68
2023/10/20 05:47:28;;;;;;;15.50;9.65;;;14.30;83.80;;;;;;5092613;28;20380;-68
2023/10/20 05:49:55;;;;;;;13.48;8.27;;;14.30;83.80;;;;;;5078578;28;20021;-68
2023/10/20 05:52:21;;;;;;;14.65;8.95;;;14.30;83.80;;;;;;5079983;28;20415;-68
2023/10/20 05:54:46;;;;;;;12.52;8.18;;;14.30;83.70;;;;;;5076052;28;20024;-68
2023/10/20 05:57:12;;;;;;;11.35;7.07;;;14.30;83.70;;;;;;5082068;28;20056;-68
2023/10/20 05:59:38;;;;;;;13.50;8.00;;;14.30;83.70;;;;;;5077583;28;20028;-68
2023/10/20 06:02:05;;;;;;;11.85;6.80;;;14.30;83.60;;;;;;5084021;28;20115;-68
2023/10/20 06:04:31;;;;;;;14.18;8.50;;;14.30;83.60;;;;;;5077571;28;20116;-68
2023/10/20 06:06:57;;;;;;;15.48;8.30;;;14.30;83.40;;;;;;5080056;28;20116;-68
2023/10/20 06:09:25;;;;;;;12.90;8.27;;;14.20;84.00;;;;;;5076269;28;20086;-68
2023/10/20 06:11:53;;;;;;;14.25;8.00;;;14.20;83.40;;;;;;5079833;28;20040;-68
2023/10/20 06:14:20;;;;;;;13.50;7.50;;;14.20;83.50;;;;;;5087060;28;20532;-68
2023/10/20 06:16:46;;;;;;;11.93;7.93;;;14.20;83.50;;;;;;5079250;28;20077;-68
2023/10/20 06:19:12;;;;;;;14.60;8.35;;;14.20;83.40;;;;;;5090728;28;20387;-68
2023/10/20 06:21:42;;;;;;;15.52;9.43;;;14.20;83.40;;;;;;5080719;28;20032;-68
2023/10/20 06:24:11;;;;;;;18.80;10.85;;;14.20;83.40;;;;;;5082353;28;20048;-68
2023/10/20 06:26:37;;;;;;;15.57;9.93;;;14.10;83.30;;;;;;5081350;28;20117;-68
2023/10/20 06:29:20;;;;;;;17.10;10.23;;;14.10;83.30;;;;;;5090954;28;20070;-68
2023/10/20 06:32:10;;;;;;;18.65;11.00;;;14.10;83.30;;;;;;5092670;28;20031;-68
2023/10/20 06:34:40;;;;;;;19.05;10.73;;;14.10;83.40;;;;;;5087481;28;20040;-68
2023/10/20 06:37:09;;;;;;;20.08;12.45;;;14.00;83.40;;;;;;5100570;28;20463;-67
2023/10/20 06:39:37;;;;;;;19.30;12.13;;;14.00;83.50;;;;;;5092868;28;20020;-68
2023/10/20 06:42:03;;;;;;;24.55;12.55;;;14.00;83.50;;;;;;5077359;28;20039;-68
2023/10/20 06:44:30;;;;;;;20.73;13.43;;;14.00;83.40;;;;;;5091176;28;20396;-67
2023/10/20 06:46:59;;;;;;;20.27;12.15;;;14.00;83.30;;;;;;5087864;28;20024;-67
2023/10/20 06:49:26;;;;;;;22.17;12.63;;;14.00;83.40;;;;;;5093231;28;20040;-68
2023/10/20 06:51:51;;;;;;;19.92;12.02;;;14.00;83.40;;;;;;5095706;28;20031;-67
2023/10/20 06:54:17;;;;;;;20.38;11.93;;;14.00;83.40;;;;;;5092790;28;20030;-68
2023/10/20 06:56:44;;;;;;;18.77;11.07;;;14.00;83.40;;;;;;5091294;28;20380;-67
2023/10/20 06:59:13;;;;;;;18.83;11.23;;;14.00;83.40;;;;;;5094423;28;20475;-67
2023/10/20 07:01:43;;;;;;;20.25;12.15;;;14.00;83.40;;;;;;5098154;28;20028;-67
2023/10/20 07:04:09;;;;;;;20.33;12.20;;;14.00;83.30;;;;;;5088743;28;20032;-67
2023/10/20 07:06:36;;;;;;;17.13;11.13;;;13.90;83.30;;;;;;5086240;28;20530;-67
2023/10/20 07:09:11;;;;;;;18.77;11.90;;;13.90;83.30;;;;;;5089161;28;20540;-66
2023/10/20 07:11:38;;;;;;;18.25;9.93;;;13.90;83.40;;;;;;5098330;28;20038;-67
2023/10/20 07:14:07;;;;;;;17.65;11.43;;;13.90;83.40;;;;;;5075280;28;20028;-67
2023/10/20 07:16:35;;;;;;;14.63;9.10;;;13.90;83.30;;;;;;5074439;28;20035;-67
2023/10/20 07:19:02;;;;;;;15.45;9.48;;;13.80;83.30;;;;;;5079841;28;20455;-67
2023/10/20 07:21:28;;;;;;;14.52;8.55;;;13.80;83.30;;;;;;5092642;28;20073;-70
2023/10/20 07:23:55;;;;;;;14.40;9.02;;;13.80;83.30;;;;;;5085326;28;20036;-68
2023/10/20 07:26:21;;;;;;;14.52;8.90;;;13.80;83.30;;;;;;5085433;28;20024;-66
2023/10/20 07:28:47;;;;;;;12.98;7.68;;;13.80;83.20;;;;;;5090048;28;20476;-66
2023/10/20 07:31:17;;;;;;;14.57;8.32;;;13.90;83.20;;;;;;5086643;28;20038;-67
2023/10/20 07:33:43;;;;;;;13.63;7.47;;;13.90;83.00;;;;;;5090730;28;20440;-67
2023/10/20 07:36:10;;;;;;;12.40;7.45;;;13.90;83.00;;;;;;5086819;28;20081;-66
2023/10/20 07:38:36;;;;;;;12.93;8.02;;;13.90;83.00;;;;;;5091154;28;20035;-66
2023/10/20 07:41:06;;;;;;;11.90;7.13;;;13.90;82.90;;;;;;5072582;28;20024;-66
2023/10/20 07:43:35;;;;;;;12.82;7.18;;;13.80;82.80;;;;;;5090426;28;20459;-66
2023/10/20 07:46:02;;;;;;;11.88;6.93;;;13.80;82.70;;;;;;5095115;28;20225;-66
2023/10/20 07:48:28;;;;;;;12.50;6.90;;;13.80;82.80;;;;;;5079801;28;20118;-66
2023/10/20 07:50:56;;;;;;;12.25;7.05;;;13.70;82.80;;;;;;5088949;28;20019;-66
2023/10/20 07:53:22;;;;;;;11.85;7.00;;;13.70;82.80;;;;;;5089561;28;20036;-67
2023/10/20 07:55:48;;;;;;;11.05;6.80;;;13.70;82.70;;;;;;5092863;28;20583;-66
2023/10/20 07:58:15;;;;;;;11.00;6.18;;;13.70;82.70;;;;;;5087346;28;20039;-67
2023/10/20 08:00:41;;;;;;;9.63;5.30;;;13.70;83.30;;;;;;5084678;28;21891;-66
2023/10/20 08:03:08;;;;;;;9.95;6.03;;;13.70;82.70;;;;;;5089457;28;20120;-66
2023/10/20 08:05:35;;;;;;;10.27;4.88;;;13.70;82.60;;;;;;5090757;28;20038;-66
2023/10/20 08:08:04;;;;;;;9.00;5.03;;;13.70;82.70;;;;;;5089745;28;20097;-67
2023/10/20 08:10:30;;;;;;;9.23;5.28;;;13.60;82.50;;;;;;5087880;28;20024;-67
2023/10/20 08:12:56;;;;;;;8.75;4.68;;;13.60;82.50;;;;;;5085835;28;20070;-67
2023/10/20 08:15:23;;;;;;;9.05;4.85;;;13.70;82.60;;;;;;5084904;28;20111;-67
2023/10/20 08:17:50;;;;;;;9.23;4.65;;;13.60;82.60;;;;;;5086026;28;20440;-67
2023/10/20 08:20:16;;;;;;;8.05;4.35;;;13.60;82.40;;;;;;5090534;28;20032;-67
2023/10/20 08:22:43;;;;;;;8.88;5.18;;;13.60;82.40;;;;;;5108149;28;20046;-67
2023/10/20 08:25:09;;;;;;;8.55;4.10;;;13.60;82.40;;;;;;5105374;28;20045;-67
2023/10/20 08:27:35;;;;;;;7.72;4.03;;;13.60;82.40;;;;;;5097805;28;20036;-67
2023/10/20 08:30:01;;;;;;;7.00;3.70;;;13.60;82.30;;;;;;5098417;28;20020;-67
2023/10/20 08:32:27;;;;;;;7.47;4.07;;;13.60;82.30;;;;;;5096511;28;20321;-67
2023/10/20 08:34:53;;;;;;;9.25;3.50;;;13.60;82.40;;;;;;5098628;28;20016;-67
2023/10/20 08:37:19;;;;;;;6.68;3.50;;;13.60;82.40;;;;;;5113493;28;20398;-67
2023/10/20 08:39:45;;;;;;;7.65;3.17;;;13.60;82.40;;;;;;5088784;28;20059;-68
2023/10/20 08:42:21;;;;;;;8.40;3.70;;;13.50;82.30;;;;;;5096569;28;20062;-68
2023/10/20 08:44:48;;;;;;;7.03;3.10;;;13.50;82.20;;;;;;5101375;28;20524;-69
2023/10/20 08:47:15;;;;;;;6.10;2.90;;;13.50;82.30;;;;;;5106198;28;20040;-67
2023/10/20 08:49:42;;;;;;;6.38;2.83;;;13.50;82.20;;;;;;5092566;28;20020;-67
2023/10/20 08:52:11;;;;;;;5.85;3.08;;;13.50;82.20;;;;;;5085664;28;20032;-67
2023/10/20 08:54:37;;;;;;;7.53;3.22;;;13.50;82.20;;;;;;5087080;28;20107;-67
2023/10/20 08:57:05;;;;;;;8.27;3.42;;;13.50;82.20;;;;;;5071304;28;20020;-67
2023/10/20 08:59:31;;;;;;;6.30;2.83;;;13.50;82.10;;;;;;5087349;28;20040;-68
2023/10/20 09:01:57;;;;;;;6.22;3.10;;;13.50;82.10;;;;;;5088303;28;20024;-68
2023/10/20 09:04:28;;;;;;;5.85;2.83;;;13.40;82.20;;;;;;5088463;28;20027;-68
2023/10/20 09:06:54;;;;;;;6.22;2.78;;;13.40;82.20;;;;;;5083581;28;21568;-68
2023/10/20 09:09:20;;;;;;;5.43;2.33;;;13.50;82.20;;;;;;5103386;28;20059;-68
2023/10/20 09:11:47;;;;;;;5.05;2.50;;;13.40;82.10;;;;;;5086186;28;20505;-68
2023/10/20 09:14:14;;;;;;;6.00;2.17;;;13.40;82.00;;;;;;5089546;28;20022;-67
2023/10/20 09:16:41;;;;;;;4.55;2.05;;;13.40;82.00;;;;;;5091239;28;20506;-68
2023/10/20 09:19:11;;;;;;;5.45;2.10;;;13.40;81.90;;;;;;5089872;28;20066;-68
2023/10/20 09:21:39;;;;;;;4.78;2.13;;;13.40;81.90;;;;;;5093328;28;20032;-67
2023/10/20 09:24:07;;;;;;;4.32;2.00;;;13.40;81.80;;;;;;5087692;28;20032;-68
2023/10/20 09:26:38;;;;;;;5.45;2.08;;;13.40;81.70;;;;;;5093107;28;20031;-69
2023/10/20 09:29:06;;;;;;;4.45;2.10;;;13.40;81.80;;;;;;5087925;28;20036;-68
2023/10/20 09:31:33;;;;;;;4.50;2.03;;;13.30;81.70;;;;;;5083353;28;20020;-68
2023/10/20 09:33:59;;;;;;;4.03;1.90;;;13.30;81.70;;;;;;5087252;28;20577;-69
2023/10/20 09:36:28;;;;;;;6.00;2.00;;;13.30;81.80;;;;;;5087949;28;20117;-68
2023/10/20 09:38:55;;;;;;;4.50;2.00;;;13.30;81.80;;;;;;5084380;28;20020;-68
2023/10/20 09:41:27;;;;;;;4.20;1.70;;;13.30;81.70;;;;;;5094444;28;20021;-68
2023/10/20 09:44:05;;;;;;;3.38;1.55;;;13.30;81.60;;;;;;5083149;28;20041;-68
2023/10/20 09:46:57;;;;;;;3.78;1.80;;;13.30;81.70;;;;;;5084941;28;20119;-68
2023/10/20 09:49:28;;;;;;;4.47;2.08;;;13.30;81.50;;;;;;5088213;28;20043;-68
2023/10/20 09:51:55;;;;;;;;;;;13.30;81.70;;;;;;5087125;28;20036;-68
2023/10/20 09:54:27;;;;;;;3.00;1.50;;;13.30;81.70;;;;;;5088339;28;19908;-68
2023/10/20 09:56:54;;;;;;;4.03;1.67;;;13.30;81.60;;;;;;5088785;28;20032;-67
2023/10/20 09:59:21;;;;;;;3.92;1.70;;;13.20;81.50;;;;;;5088753;28;20024;-68
2023/10/20 10:01:48;;;;;;;3.80;1.60;;;13.30;81.60;;;;;;5083689;28;20026;-68
2023/10/20 10:04:21;;;;;;;2.83;1.60;;;13.30;81.60;;;;;;5089872;28;20024;-68
2023/10/20 10:06:48;;;;;;;3.20;1.60;;;13.30;81.60;;;;;;5087187;28;20031;-68
2023/10/20 10:09:15;;;;;;;4.32;1.90;;;13.30;81.70;;;;;;5087445;28;20089;-68
2023/10/20 10:11:45;;;;;;;2.72;1.52;;;13.30;81.70;;;;;;5075843;28;20356;-68
2023/10/20 10:14:22;;;;;;;2.72;1.58;;;13.30;81.60;;;;;;5095559;28;20024;-67
2023/10/20 10:16:55;;;;;;;3.65;1.73;;;13.40;81.60;;;;;;5088605;28;20013;-67
2023/10/20 10:19:27;;;;;;;3.40;1.52;;;13.30;81.60;;;;;;5085930;28;20032;-67
2023/10/20 10:21:58;;;;;;;3.05;1.52;;;13.40;81.60;;;;;;5083875;28;20032;-67
2023/10/20 10:24:25;;;;;;;3.42;1.58;;;13.30;81.50;;;;;;5086642;28;20043;-68
2023/10/20 10:27:04;;;;;;;2.95;1.40;;;13.30;81.70;;;;;;5090586;28;20096;-69
2023/10/20 10:32:48;;;;;;;2.28;1.30;;;13.30;81.60;;;;;;5077135;28;20046;-68
2023/10/20 10:35:17;;;;;;;3.67;1.55;;;13.30;81.70;;;;;;5069948;28;20158;-67
2023/10/20 10:37:43;;;;;;;3.63;1.60;;;13.40;81.70;;;;;;5092488;28;20024;-67
2023/10/20 10:40:18;;;;;;;3.20;1.40;;;13.40;81.70;;;;;;5092133;28;20089;-67
2023/10/20 10:42:51;;;;;;;3.40;1.45;;;13.40;81.60;;;;;;5085655;28;20032;-67
2023/10/20 10:45:31;;;;;;;1.92;1.13;;;13.40;81.60;;;;;;5085917;28;20036;-67
2023/10/20 10:48:04;;;;;;;3.78;1.55;;;13.30;81.60;;;;;;5087911;28;20054;-66
2023/10/20 10:50:30;;;;;;;3.10;1.30;;;13.40;81.70;;;;;;5087613;28;20124;-66
2023/10/20 10:52:56;;;;;;;2.90;1.40;;;13.40;81.70;;;;;;5076859;28;20123;-66
2023/10/20 10:55:22;;;;;;;3.35;1.30;;;13.40;81.70;;;;;;5088971;28;20054;-66
2023/10/20 10:57:48;;;;;;;3.30;1.13;;;13.30;81.60;;;;;;5091770;28;20028;-66
2023/10/20 11:00:15;;;;;;;2.72;1.30;;;13.30;81.60;;;;;;5088138;28;20355;-66
2023/10/20 11:02:46;;;;;;;3.55;1.30;;;13.40;81.70;;;;;;5086801;28;20024;-67
2023/10/20 11:05:12;;;;;;;3.08;1.40;;;13.40;81.70;;;;;;5088266;28;20433;-66
2023/10/20 11:07:38;;;;;;;2.83;1.20;;;13.40;81.60;;;;;;5087722;28;20032;-67
2023/10/20 11:10:05;;;;;;;3.05;1.20;;;13.30;81.60;;;;;;5089463;28;20028;-66
2023/10/20 11:12:35;;;;;;;2.78;1.30;;;13.40;81.60;;;;;;5086076;28;20543;-66
2023/10/20 11:15:01;;;;;;;2.90;1.17;;;13.40;81.50;;;;;;5094336;28;20095;-66
2023/10/20 11:17:27;;;;;;;2.10;1.30;;;13.40;81.70;;;;;;5087244;28;20048;-66
2023/10/20 11:19:54;;;;;;;2.03;1.25;;;13.40;81.70;;;;;;5085563;28;20465;-66
2023/10/20 11:22:20;;;;;;;2.63;1.27;;;13.30;81.60;;;;;;5087180;28;20368;-66
2023/10/20 11:24:53;;;;;;;3.35;1.42;;;13.30;81.60;;;;;;5094972;28;20444;-66
2023/10/20 11:27:19;;;;;;;2.65;1.30;;;13.30;81.70;;;;;;5085681;28;20039;-66
2023/10/20 11:29:45;;;;;;;2.58;1.20;;;13.30;81.70;;;;;;5086469;28;20044;-67
2023/10/20 11:32:14;;;;;;;3.08;1.40;;;13.40;81.80;;;;;;5069216;28;20545;-68
2023/10/20 11:34:40;;;;;;;3.20;1.30;;;13.30;81.70;;;;;;5086745;28;20032;-67
2023/10/20 11:37:06;;;;;;;2.53;1.23;;;13.40;81.70;;;;;;5078601;28;20035;-68
2023/10/20 11:39:36;;;;;;;2.13;1.30;;;13.40;82.30;;;;;;5085742;28;20165;-67
2023/10/20 11:42:02;;;;;;;1.67;0.95;;;13.40;81.70;;;;;;5083386;28;20031;-68
2023/10/20 11:44:28;;;;;;;2.67;1.15;;;13.30;81.60;;;;;;5089806;28;20160;-68
2023/10/20 11:46:55;;;;;;;1.95;1.20;;;13.40;81.70;;;;;;5083989;28;20058;-68
2023/10/20 11:49:22;;;;;;;2.40;1.25;;;13.30;81.60;;;;;;5085731;28;20028;-68
2023/10/20 11:51:48;;;;;;;2.25;1.20;;;13.40;81.50;;;;;;5086369;28;20032;-67
2023/10/20 11:54:14;;;;;;;1.73;1.00;;;13.40;82.10;;;;;;5084670;28;20021;-67
2023/10/20 11:56:40;;;;;;;2.47;1.20;;;13.40;81.40;;;;;;5083228;28;20036;-69
2023/10/20 11:59:07;;;;;;;2.08;1.05;;;13.40;81.40;;;;;;5085450;28;20152;-68
2023/10/20 12:01:32;;;;;;;2.03;1.00;;;13.40;81.40;;;;;;5086439;28;20060;-69
2023/10/20 12:03:59;;;;;;;2.05;1.20;;;13.40;81.40;;;;;;5065889;28;20097;-68
2023/10/20 12:06:26;;;;;;;2.35;1.27;;;13.40;81.40;;;;;;5085226;28;20028;-68
2023/10/20 12:08:51;;;;;;;3.70;1.20;;;13.30;81.40;;;;;;5083182;28;20379;-69
2023/10/20 12:11:18;;;;;;;1.42;1.10;;;13.30;81.50;;;;;;5088764;28;20051;-69
2023/10/20 12:13:48;;;;;;;1.85;1.17;;;13.30;81.50;;;;;;5086557;28;20473;-69
2023/10/20 12:16:19;;;;;;;2.47;1.13;;;13.40;81.60;;;;;;5086312;28;20078;-67
2023/10/20 12:18:48;;;;;;;2.70;1.27;;;13.40;81.60;;;;;;5086440;28;20028;-69
2023/10/20 12:21:14;;;;;;;2.75;1.40;;;13.40;81.60;;;;;;5083332;28;20074;-68
2023/10/20 12:23:40;;;;;;;3.03;1.50;;;13.40;81.50;;;;;;5087093;28;20028;-68
2023/10/20 12:26:05;;;;;;;3.08;1.50;;;13.40;81.60;;;;;;5084765;28;20024;-68
2023/10/20 12:28:31;;;;;;;3.35;1.67;;;13.40;81.60;;;;;;5069468;28;20032;-68
2023/10/20 12:30:59;;;;;;;1.60;1.05;;;13.40;81.60;;;;;;5080872;28;20036;-67
2023/10/20 12:33:26;;;;;;;2.65;1.23;;;13.40;81.60;;;;;;5082096;28;20078;-67
2023/10/20 12:35:55;;;;;;;2.97;1.20;;;13.40;81.60;;;;;;5085111;28;20081;-67
2023/10/20 12:38:24;;;;;;;3.08;1.30;;;13.40;81.50;;;;;;5064056;28;20025;-66
2023/10/20 12:40:50;;;;;;;2.20;1.20;;;13.40;81.50;;;;;;5085303;28;20043;-66
2023/10/20 12:43:16;;;;;;;3.55;1.60;;;13.30;81.40;;;;;;5088877;28;20040;-67
2023/10/20 12:45:42;;;;;;;2.30;1.10;;;13.40;81.50;;;;;;5090022;28;20409;-68
2023/10/20 12:48:08;;;;;;;2.17;1.02;;;13.30;81.60;;;;;;5092841;28;20037;-67
2023/10/20 12:50:34;;;;;;;2.47;1.17;;;13.30;81.70;;;;;;5094147;28;20023;-68
2023/10/20 12:53:00;;;;;;;2.78;1.50;;;13.30;81.70;;;;;;5091218;28;20032;-67
2023/10/20 12:55:26;;;;;;;2.20;1.13;;;13.30;81.70;;;;;;5074551;28;20044;-68
2023/10/20 12:57:53;;;;;;;1.80;1.00;;;13.30;81.80;;;;;;5089175;28;20084;-69
2023/10/20 13:00:20;;;;;;;2.47;1.20;;;13.30;81.90;;;;;;5088335;28;20024;-69
2023/10/20 13:02:49;;;;;;;2.58;1.20;;;13.30;81.80;;;;;;5079804;28;20508;-68
2023/10/20 13:05:16;;;;;;;2.63;1.15;;;13.30;81.90;;;;;;5091053;28;20028;-68
2023/10/20 13:07:42;;;;;;;2.53;1.25;;;13.30;81.90;;;;;;5089062;28;20024;-68
2023/10/20 13:10:09;;;;;;;1.48;1.00;;;13.30;81.90;;;;;;5075440;28;20039;-69
2023/10/20 13:12:35;;;;;;;2.30;1.17;;;13.30;81.90;;;;;;5073833;28;20035;-69